sensor_id;sensor_type;location;lat;lon;timestamp;pressure;altitude;pressure_sealevel;temperature;humidity
18988;BME280;5494;51.796;10.952;2023-04-04T00:00:51;100331.97;;;-0.62;97.96
18988;BME280;5494;51.796;10.952;2023-04-04T00:03:18;100325.25;;;-0.58;98.13
18988;BME280;5494;51.796;10.952;2023-04-04T00:05:47;100324.16;;;-0.72;97.79
18988;BME280;5494;51.796;10.952;2023-04-04T00:08:15;100330.25;;;-0.64;98.57
18988;BME280;5494;51.796;10.952;2023-04-04T00:10:43;100324.25;;;-0.66;97.64
18988;BME280;5494;51.796;10.952;2023-04-04T00:13:12;100326.81;;;-0.66;98.22
18988;BME280;5494;51.796;10.952;2023-04-04T00:15:41;100326.72;;;-0.72;98.85
18988;BME280;5494;51.796;10.952;2023-04-04T00:18:08;100325.81;;;-0.74;98.56
18988;BME280;5494;51.796;10.952;2023-04-04T00:20:37;100325.94;;;-0.67;97.97
18988;BME280;5494;51.796;10.952;2023-04-04T00:23:05;100327.59;;;-0.70;97.54
18988;BME280;5494;51.796;10.952;2023-04-04T00:25:37;100323.47;;;-0.64;97.94
18988;BME280;5494;51.796;10.952;2023-04-04T00:28:05;100321.75;;;-0.65;97.40
18988;BME280;5494;51.796;10.952;2023-04-04T00:30:34;100328.56;;;-0.64;97.24
18988;BME280;5494;51.796;10.952;2023-04-04T00:33:03;100326.06;;;-0.59;96.81
18988;BME280;5494;51.796;10.952;2023-04-04T00:35:32;100319.28;;;-0.59;96.17
18988;BME280;5494;51.796;10.952;2023-04-04T00:38:00;100331.22;;;-0.58;96.38
18988;BME280;5494;51.796;10.952;2023-04-04T00:40:28;100329.50;;;-0.59;96.17
18988;BME280;5494;51.796;10.952;2023-04-04T00:42:58;100324.41;;;-0.57;95.92
18988;BME280;5494;51.796;10.952;2023-04-04T00:45:26;100330.38;;;-0.57;95.88
18988;BME280;5494;51.796;10.952;2023-04-04T00:47:57;100333.81;;;-0.53;95.90
18988;BME280;5494;51.796;10.952;2023-04-04T00:50:25;100328.81;;;-0.47;95.32
18988;BME280;5494;51.796;10.952;2023-04-04T00:52:53;100328.91;;;-0.41;95.03
18988;BME280;5494;51.796;10.952;2023-04-04T00:55:22;100333.19;;;-0.40;94.13
18988;BME280;5494;51.796;10.952;2023-04-04T00:57:50;100330.59;;;-0.43;94.81
18988;BME280;5494;51.796;10.952;2023-04-04T01:00:18;100328.91;;;-0.41;94.64
18988;BME280;5494;51.796;10.952;2023-04-04T01:02:46;100332.38;;;-0.37;94.24
18988;BME280;5494;51.796;10.952;2023-04-04T01:05:16;100328.13;;;-0.37;93.76
18988;BME280;5494;51.796;10.952;2023-04-04T01:07:44;100326.50;;;-0.32;92.79
18988;BME280;5494;51.796;10.952;2023-04-04T01:10:12;100331.63;;;-0.30;93.22
18988;BME280;5494;51.796;10.952;2023-04-04T01:12:41;100327.28;;;-0.34;93.34
18988;BME280;5494;51.796;10.952;2023-04-04T01:15:10;100329.09;;;-0.29;93.14
18988;BME280;5494;51.796;10.952;2023-04-04T01:17:39;100327.47;;;-0.24;93.53
18988;BME280;5494;51.796;10.952;2023-04-04T01:20:13;100325.81;;;-0.22;93.84
18988;BME280;5494;51.796;10.952;2023-04-04T01:22:49;100326.66;;;-0.20;93.72
18988;BME280;5494;51.796;10.952;2023-04-04T01:25:25;100323.25;;;-0.22;94.38
18988;BME280;5494;51.796;10.952;2023-04-04T01:27:57;100313.88;;;-0.21;94.61
18988;BME280;5494;51.796;10.952;2023-04-04T01:30:31;100321.50;;;-0.24;94.42
18988;BME280;5494;51.796;10.952;2023-04-04T01:33:09;100308.78;;;-0.21;95.21
18988;BME280;5494;51.796;10.952;2023-04-04T01:35:49;100315.41;;;-0.32;94.53
18988;BME280;5494;51.796;10.952;2023-04-04T01:38:28;100310.44;;;-0.23;95.14
18988;BME280;5494;51.796;10.952;2023-04-04T01:41:04;100303.59;;;-0.26;95.41
18988;BME280;5494;51.796;10.952;2023-04-04T01:43:35;100302.66;;;-0.31;95.43
18988;BME280;5494;51.796;10.952;2023-04-04T01:46:04;100302.75;;;-0.25;95.20
18988;BME280;5494;51.796;10.952;2023-04-04T01:48:32;100301.78;;;-0.33;95.53
18988;BME280;5494;51.796;10.952;2023-04-04T01:51:04;100295.91;;;-0.29;95.53
18988;BME280;5494;51.796;10.952;2023-04-04T01:53:33;100292.59;;;-0.20;95.47
18988;BME280;5494;51.796;10.952;2023-04-04T01:56:03;100289.19;;;-0.19;95.28
18988;BME280;5494;51.796;10.952;2023-04-04T01:58:33;100284.09;;;-0.21;94.20
18988;BME280;5494;51.796;10.952;2023-04-04T02:01:01;100278.78;;;-0.36;94.79
18988;BME280;5494;51.796;10.952;2023-04-04T02:03:29;100292.38;;;-0.37;95.32
18988;BME280;5494;51.796;10.952;2023-04-04T02:05:57;100279.56;;;-0.38;95.92
18988;BME280;5494;51.796;10.952;2023-04-04T02:08:25;100285.69;;;-0.29;96.03
18988;BME280;5494;51.796;10.952;2023-04-04T02:10:56;100283.13;;;-0.29;96.64
18988;BME280;5494;51.796;10.952;2023-04-04T02:13:27;100289.78;;;-0.38;96.25
18988;BME280;5494;51.796;10.952;2023-04-04T02:15:57;100288.69;;;-0.56;96.41
18988;BME280;5494;51.796;10.952;2023-04-04T02:18:25;100282.78;;;-0.52;97.51
18988;BME280;5494;51.796;10.952;2023-04-04T02:20:55;100290.44;;;-0.52;97.70
18988;BME280;5494;51.796;10.952;2023-04-04T02:23:23;100283.72;;;-0.45;97.27
18988;BME280;5494;51.796;10.952;2023-04-04T02:25:52;100281.13;;;-0.48;97.01
18988;BME280;5494;51.796;10.952;2023-04-04T02:28:19;100282.66;;;-0.59;98.29
18988;BME280;5494;51.796;10.952;2023-04-04T02:30:49;100269.97;;;-0.56;98.89
18988;BME280;5494;51.796;10.952;2023-04-04T02:33:17;100273.25;;;-0.63;98.75
18988;BME280;5494;51.796;10.952;2023-04-04T02:35:46;100264.81;;;-0.59;99.15
18988;BME280;5494;51.796;10.952;2023-04-04T02:38:14;100270.81;;;-0.56;99.06
18988;BME280;5494;51.796;10.952;2023-04-04T02:40:45;100263.25;;;-0.48;98.38
18988;BME280;5494;51.796;10.952;2023-04-04T02:43:13;100265.75;;;-0.53;98.33
18988;BME280;5494;51.796;10.952;2023-04-04T02:45:42;100263.13;;;-0.57;98.26
18988;BME280;5494;51.796;10.952;2023-04-04T02:48:20;100263.91;;;-0.63;98.27
18988;BME280;5494;51.796;10.952;2023-04-04T02:50:50;100258.75;;;-0.66;99.57
18988;BME280;5494;51.796;10.952;2023-04-04T02:53:18;100257.16;;;-0.58;99.36
18988;BME280;5494;51.796;10.952;2023-04-04T02:55:49;100267.22;;;-0.70;99.09
18988;BME280;5494;51.796;10.952;2023-04-04T02:58:17;100256.13;;;-0.70;99.73
18988;BME280;5494;51.796;10.952;2023-04-04T03:00:45;100263.72;;;-0.76;99.66
18988;BME280;5494;51.796;10.952;2023-04-04T03:03:14;100267.09;;;-0.77;99.51
18988;BME280;5494;51.796;10.952;2023-04-04T03:05:46;100266.03;;;-0.89;100.00
18988;BME280;5494;51.796;10.952;2023-04-04T03:08:16;100260.81;;;-0.96;100.00
18988;BME280;5494;51.796;10.952;2023-04-04T03:10:44;100250.59;;;-0.98;100.00
18988;BME280;5494;51.796;10.952;2023-04-04T03:13:12;100247.19;;;-0.97;100.00
18988;BME280;5494;51.796;10.952;2023-04-04T03:15:40;100248.94;;;-0.94;100.00
18988;BME280;5494;51.796;10.952;2023-04-04T03:18:13;100247.25;;;-0.94;100.00
18988;BME280;5494;51.796;10.952;2023-04-04T03:20:42;100254.03;;;-0.96;100.00
18988;BME280;5494;51.796;10.952;2023-04-04T03:23:11;100243.72;;;-1.02;100.00
18988;BME280;5494;51.796;10.952;2023-04-04T03:25:39;100252.19;;;-1.03;100.00
18988;BME280;5494;51.796;10.952;2023-04-04T03:28:08;100247.13;;;-1.01;100.00
18988;BME280;5494;51.796;10.952;2023-04-04T03:30:36;100242.94;;;-0.98;100.00
18988;BME280;5494;51.796;10.952;2023-04-04T03:33:05;100230.94;;;-1.05;100.00
18988;BME280;5494;51.796;10.952;2023-04-04T03:35:37;100228.34;;;-1.06;100.00
18988;BME280;5494;51.796;10.952;2023-04-04T03:38:05;100226.47;;;-1.18;100.00
18988;BME280;5494;51.796;10.952;2023-04-04T03:40:35;100228.97;;;-1.21;100.00
18988;BME280;5494;51.796;10.952;2023-04-04T03:43:09;100223.03;;;-1.20;100.00
18988;BME280;5494;51.796;10.952;2023-04-04T03:45:38;100219.50;;;-1.27;100.00
18988;BME280;5494;51.796;10.952;2023-04-04T03:48:08;100215.97;;;-1.35;100.00
18988;BME280;5494;51.796;10.952;2023-04-04T03:50:38;100223.50;;;-1.42;100.00
18988;BME280;5494;51.796;10.952;2023-04-04T03:53:06;100221.84;;;-1.40;100.00
18988;BME280;5494;51.796;10.952;2023-04-04T03:55:39;100209.84;;;-1.46;100.00
18988;BME280;5494;51.796;10.952;2023-04-04T03:58:08;100214.81;;;-1.52;100.00
18988;BME280;5494;51.796;10.952;2023-04-04T04:00:36;100211.47;;;-1.49;100.00
18988;BME280;5494;51.796;10.952;2023-04-04T04:03:07;100212.41;;;-1.44;100.00
18988;BME280;5494;51.796;10.952;2023-04-04T04:05:35;100209.72;;;-1.52;100.00
18988;BME280;5494;51.796;10.952;2023-04-04T04:08:04;100206.34;;;-1.51;100.00
18988;BME280;5494;51.796;10.952;2023-04-04T04:10:32;100213.97;;;-1.51;100.00
18988;BME280;5494;51.796;10.952;2023-04-04T04:13:02;100210.56;;;-1.51;100.00
18988;BME280;5494;51.796;10.952;2023-04-04T04:15:30;100212.09;;;-1.63;100.00
18988;BME280;5494;51.796;10.952;2023-04-04T04:18:00;100213.84;;;-1.59;100.00
18988;BME280;5494;51.796;10.952;2023-04-04T04:20:28;100212.28;;;-1.50;100.00
18988;BME280;5494;51.796;10.952;2023-04-04T04:22:56;100208.75;;;-1.59;100.00
18988;BME280;5494;51.796;10.952;2023-04-04T04:25:24;100215.53;;;-1.59;100.00
18988;BME280;5494;51.796;10.952;2023-04-04T04:27:59;100213.78;;;-1.63;100.00
18988;BME280;5494;51.796;10.952;2023-04-04T04:30:28;100213.81;;;-1.62;100.00
18988;BME280;5494;51.796;10.952;2023-04-04T04:32:57;100207.78;;;-1.67;100.00
18988;BME280;5494;51.796;10.952;2023-04-04T04:35:34;100209.59;;;-1.58;100.00
18988;BME280;5494;51.796;10.952;2023-04-04T04:38:03;100210.47;;;-1.58;100.00
18988;BME280;5494;51.796;10.952;2023-04-04T04:40:31;100209.59;;;-1.60;100.00
18988;BME280;5494;51.796;10.952;2023-04-04T04:43:04;100213.00;;;-1.58;100.00
18988;BME280;5494;51.796;10.952;2023-04-04T04:45:37;100209.84;;;-1.44;100.00
18988;BME280;5494;51.796;10.952;2023-04-04T04:48:07;100206.50;;;-1.42;100.00
18988;BME280;5494;51.796;10.952;2023-04-04T04:50:42;100211.66;;;-1.39;100.00
18988;BME280;5494;51.796;10.952;2023-04-04T04:53:13;100206.63;;;-1.34;100.00
18988;BME280;5494;51.796;10.952;2023-04-04T04:55:47;100207.66;;;-1.23;100.00
18988;BME280;5494;51.796;10.952;2023-04-04T04:58:18;100212.72;;;-1.26;100.00
18988;BME280;5494;51.796;10.952;2023-04-04T05:00:55;100206.06;;;-1.16;100.00
18988;BME280;5494;51.796;10.952;2023-04-04T05:03:30;100217.47;;;-0.95;100.00
18988;BME280;5494;51.796;10.952;2023-04-04T05:05:59;100205.91;;;-0.71;100.00
18988;BME280;5494;51.796;10.952;2023-04-04T05:08:28;100214.75;;;-0.47;100.00
18988;BME280;5494;51.796;10.952;2023-04-04T05:11:09;100209.25;;;-0.12;100.00
18988;BME280;5494;51.796;10.952;2023-04-04T05:13:37;100219.81;;;0.18;99.94
18988;BME280;5494;51.796;10.952;2023-04-04T05:16:07;100214.19;;;0.48;98.19
18988;BME280;5494;51.796;10.952;2023-04-04T05:18:35;100214.53;;;0.88;95.04
18988;BME280;5494;51.796;10.952;2023-04-04T05:21:08;100221.56;;;1.19;92.00
18988;BME280;5494;51.796;10.952;2023-04-04T05:23:37;100227.75;;;1.53;89.33
18988;BME280;5494;51.796;10.952;2023-04-04T05:26:06;100221.22;;;2.07;85.91
18988;BME280;5494;51.796;10.952;2023-04-04T05:28:37;100230.66;;;2.20;84.00
18988;BME280;5494;51.796;10.952;2023-04-04T05:31:08;100223.03;;;2.71;80.67
18988;BME280;5494;51.796;10.952;2023-04-04T05:33:36;100225.59;;;3.26;76.06
18988;BME280;5494;51.796;10.952;2023-04-04T05:36:21;100221.28;;;3.55;72.81
18988;BME280;5494;51.796;10.952;2023-04-04T05:38:54;100224.41;;;4.32;67.73
18988;BME280;5494;51.796;10.952;2023-04-04T05:41:28;100230.06;;;4.86;64.42
18988;BME280;5494;51.796;10.952;2023-04-04T05:44:01;100230.31;;;5.54;60.21
18988;BME280;5494;51.796;10.952;2023-04-04T05:46:30;100226.44;;;5.95;57.31
18988;BME280;5494;51.796;10.952;2023-04-04T05:48:58;100226.91;;;6.29;55.40
18988;BME280;5494;51.796;10.952;2023-04-04T05:51:27;100220.94;;;6.84;54.02
18988;BME280;5494;51.796;10.952;2023-04-04T05:54:06;100232.34;;;6.69;53.90
18988;BME280;5494;51.796;10.952;2023-04-04T05:56:37;100228.41;;;7.00;52.94
18988;BME280;5494;51.796;10.952;2023-04-04T05:59:12;100234.72;;;7.35;51.94
18988;BME280;5494;51.796;10.952;2023-04-04T06:01:52;100229.19;;;7.55;51.26
18988;BME280;5494;51.796;10.952;2023-04-04T06:04:20;100232.38;;;7.69;51.35
18988;BME280;5494;51.796;10.952;2023-04-04T06:06:51;100231.88;;;7.50;50.48
18988;BME280;5494;51.796;10.952;2023-04-04T06:09:20;100230.88;;;7.08;51.40
18988;BME280;5494;51.796;10.952;2023-04-04T06:11:48;100237.84;;;6.45;53.82
18988;BME280;5494;51.796;10.952;2023-04-04T06:14:16;100247.22;;;5.81;56.33
18988;BME280;5494;51.796;10.952;2023-04-04T06:16:45;100239.31;;;6.01;55.93
18988;BME280;5494;51.796;10.952;2023-04-04T06:19:15;100247.81;;;6.08;55.87
18988;BME280;5494;51.796;10.952;2023-04-04T06:21:47;100246.75;;;6.22;55.60
18988;BME280;5494;51.796;10.952;2023-04-04T06:24:15;100245.59;;;6.45;55.33
18988;BME280;5494;51.796;10.952;2023-04-04T06:26:43;100237.31;;;6.83;54.23
18988;BME280;5494;51.796;10.952;2023-04-04T06:29:12;100248.00;;;6.58;53.52
18988;BME280;5494;51.796;10.952;2023-04-04T06:31:41;100250.97;;;6.91;53.82
18988;BME280;5494;51.796;10.952;2023-04-04T06:34:21;100247.75;;;7.30;52.35
18988;BME280;5494;51.796;10.952;2023-04-04T06:36:53;100252.78;;;7.39;51.61
18988;BME280;5494;51.796;10.952;2023-04-04T06:39:24;100252.13;;;7.74;50.67
18988;BME280;5494;51.796;10.952;2023-04-04T06:41:54;100250.22;;;7.82;50.69
18988;BME280;5494;51.796;10.952;2023-04-04T06:44:26;100253.25;;;8.04;49.26
18988;BME280;5494;51.796;10.952;2023-04-04T06:46:54;100249.22;;;7.89;49.84
18988;BME280;5494;51.796;10.952;2023-04-04T06:49:25;100247.50;;;7.90;50.17
18988;BME280;5494;51.796;10.952;2023-04-04T06:51:53;100251.16;;;7.32;51.06
18988;BME280;5494;51.796;10.952;2023-04-04T06:54:21;100257.59;;;7.08;51.81
18988;BME280;5494;51.796;10.952;2023-04-04T06:56:49;100258.13;;;6.72;52.64
18988;BME280;5494;51.796;10.952;2023-04-04T06:59:17;100255.34;;;6.86;54.19
18988;BME280;5494;51.796;10.952;2023-04-04T07:01:45;100241.16;;;8.05;51.17
18988;BME280;5494;51.796;10.952;2023-04-04T07:04:13;100248.09;;;8.04;50.11
18988;BME280;5494;51.796;10.952;2023-04-04T07:06:42;100245.97;;;8.23;50.16
18988;BME280;5494;51.796;10.952;2023-04-04T07:09:10;100253.41;;;8.41;49.79
18988;BME280;5494;51.796;10.952;2023-04-04T07:11:52;100255.28;;;8.35;50.93
18988;BME280;5494;51.796;10.952;2023-04-04T07:14:19;100263.28;;;9.01;48.50
18988;BME280;5494;51.796;10.952;2023-04-04T07:16:51;100246.53;;;9.80;46.82
18988;BME280;5494;51.796;10.952;2023-04-04T07:19:19;100254.56;;;9.39;46.02
18988;BME280;5494;51.796;10.952;2023-04-04T07:21:51;100255.44;;;9.04;47.90
18988;BME280;5494;51.796;10.952;2023-04-04T07:24:19;100251.41;;;8.91;47.23
18988;BME280;5494;51.796;10.952;2023-04-04T07:26:47;100247.16;;;7.62;50.43
18988;BME280;5494;51.796;10.952;2023-04-04T07:29:15;100254.50;;;6.24;55.54
18988;BME280;5494;51.796;10.952;2023-04-04T07:31:43;100255.06;;;6.46;56.60
18988;BME280;5494;51.796;10.952;2023-04-04T07:34:11;100248.47;;;7.86;54.22
18988;BME280;5494;51.796;10.952;2023-04-04T07:36:40;100254.28;;;8.79;50.52
18988;BME280;5494;51.796;10.952;2023-04-04T07:39:09;100249.69;;;8.91;48.87
18988;BME280;5494;51.796;10.952;2023-04-04T07:41:37;100241.75;;;8.19;49.18
18988;BME280;5494;51.796;10.952;2023-04-04T07:44:05;100237.66;;;7.63;50.87
18988;BME280;5494;51.796;10.952;2023-04-04T07:46:33;100237.66;;;7.15;52.56
18988;BME280;5494;51.796;10.952;2023-04-04T07:49:02;100236.91;;;7.08;53.54
18988;BME280;5494;51.796;10.952;2023-04-04T07:51:29;100230.22;;;6.37;55.48
18988;BME280;5494;51.796;10.952;2023-04-04T07:53:58;100240.72;;;7.37;54.16
18988;BME280;5494;51.796;10.952;2023-04-04T07:56:28;100226.66;;;8.78;51.26
18988;BME280;5494;51.796;10.952;2023-04-04T07:58:56;100229.34;;;9.10;47.08
18988;BME280;5494;51.796;10.952;2023-04-04T08:01:24;100223.00;;;10.17;44.72
18988;BME280;5494;51.796;10.952;2023-04-04T08:03:52;100221.63;;;10.91;42.18
18988;BME280;5494;51.796;10.952;2023-04-04T08:06:20;100221.22;;;10.77;42.23
18988;BME280;5494;51.796;10.952;2023-04-04T08:08:48;100220.00;;;10.31;43.65
18988;BME280;5494;51.796;10.952;2023-04-04T08:11:17;100224.66;;;10.20;43.62
18988;BME280;5494;51.796;10.952;2023-04-04T08:13:47;100217.94;;;10.11;42.90
18988;BME280;5494;51.796;10.952;2023-04-04T08:16:15;100223.44;;;9.70;43.38
18988;BME280;5494;51.796;10.952;2023-04-04T08:18:43;100216.91;;;10.48;42.63
18988;BME280;5494;51.796;10.952;2023-04-04T08:21:11;100218.00;;;9.79;44.63
18988;BME280;5494;51.796;10.952;2023-04-04T08:23:39;100223.34;;;9.40;43.75
18988;BME280;5494;51.796;10.952;2023-04-04T08:26:07;100226.78;;;9.42;44.63
18988;BME280;5494;51.796;10.952;2023-04-04T08:28:35;100213.06;;;9.37;44.46
18988;BME280;5494;51.796;10.952;2023-04-04T08:31:04;100227.84;;;9.00;45.71
18988;BME280;5494;51.796;10.952;2023-04-04T08:33:32;100222.44;;;9.09;46.02
18988;BME280;5494;51.796;10.952;2023-04-04T08:36:13;100216.06;;;9.87;44.83
18988;BME280;5494;51.796;10.952;2023-04-04T08:38:41;100231.56;;;8.90;46.97
18988;BME280;5494;51.796;10.952;2023-04-04T08:41:11;100219.69;;;9.81;42.91
18988;BME280;5494;51.796;10.952;2023-04-04T08:43:42;100226.88;;;10.61;41.58
18988;BME280;5494;51.796;10.952;2023-04-04T08:46:15;100219.06;;;10.34;39.93
18988;BME280;5494;51.796;10.952;2023-04-04T08:48:44;100229.00;;;9.56;41.63
18988;BME280;5494;51.796;10.952;2023-04-04T08:51:18;100233.75;;;9.73;37.69
18988;BME280;5494;51.796;10.952;2023-04-04T08:53:46;100222.78;;;10.25;37.47
18988;BME280;5494;51.796;10.952;2023-04-04T08:56:15;100231.03;;;9.45;40.34
18988;BME280;5494;51.796;10.952;2023-04-04T08:58:44;100227.09;;;9.30;40.55
18988;BME280;5494;51.796;10.952;2023-04-04T09:01:13;100230.25;;;9.07;42.56
18988;BME280;5494;51.796;10.952;2023-04-04T09:03:43;100223.53;;;8.99;38.66
18988;BME280;5494;51.796;10.952;2023-04-04T09:06:12;100231.41;;;8.17;42.94
18988;BME280;5494;51.796;10.952;2023-04-04T09:08:42;100229.41;;;9.07;41.50
18988;BME280;5494;51.796;10.952;2023-04-04T09:11:12;100232.41;;;8.10;39.80
18988;BME280;5494;51.796;10.952;2023-04-04T09:13:42;100236.22;;;6.97;42.04
18988;BME280;5494;51.796;10.952;2023-04-04T09:16:13;100239.59;;;5.72;43.84
18988;BME280;5494;51.796;10.952;2023-04-04T09:18:41;100235.81;;;6.05;44.51
18988;BME280;5494;51.796;10.952;2023-04-04T09:21:10;100233.41;;;5.90;46.48
18988;BME280;5494;51.796;10.952;2023-04-04T09:23:39;100235.28;;;5.73;48.05
18988;BME280;5494;51.796;10.952;2023-04-04T09:26:07;100234.56;;;6.33;46.56
18988;BME280;5494;51.796;10.952;2023-04-04T09:28:35;100233.50;;;6.50;45.28
18988;BME280;5494;51.796;10.952;2023-04-04T09:31:07;100237.19;;;5.55;46.30
18988;BME280;5494;51.796;10.952;2023-04-04T09:33:37;100233.97;;;6.13;48.02
18988;BME280;5494;51.796;10.952;2023-04-04T09:36:09;100235.00;;;6.64;46.05
18988;BME280;5494;51.796;10.952;2023-04-04T09:38:40;100235.53;;;6.26;45.61
18988;BME280;5494;51.796;10.952;2023-04-04T09:41:13;100237.72;;;5.88;46.92
18988;BME280;5494;51.796;10.952;2023-04-04T09:43:44;100232.09;;;6.26;46.25
18988;BME280;5494;51.796;10.952;2023-04-04T09:46:12;100237.09;;;6.37;45.55
18988;BME280;5494;51.796;10.952;2023-04-04T09:48:48;100230.66;;;6.02;46.33
18988;BME280;5494;51.796;10.952;2023-04-04T09:51:17;100227.31;;;6.61;45.78
18988;BME280;5494;51.796;10.952;2023-04-04T09:53:47;100232.34;;;6.69;45.99
18988;BME280;5494;51.796;10.952;2023-04-04T09:56:15;100225.09;;;6.36;45.85
18988;BME280;5494;51.796;10.952;2023-04-04T09:58:46;100217.16;;;5.79;47.55
18988;BME280;5494;51.796;10.952;2023-04-04T10:01:29;100228.66;;;6.24;48.60
18988;BME280;5494;51.796;10.952;2023-04-04T10:04:03;100224.16;;;6.41;46.56
18988;BME280;5494;51.796;10.952;2023-04-04T10:06:31;100227.31;;;6.61;47.00
18988;BME280;5494;51.796;10.952;2023-04-04T10:09:00;100217.28;;;6.97;46.29
18988;BME280;5494;51.796;10.952;2023-04-04T10:11:31;100218.03;;;7.53;44.53
18988;BME280;5494;51.796;10.952;2023-04-04T10:14:01;100220.00;;;7.84;43.54
18988;BME280;5494;51.796;10.952;2023-04-04T10:16:31;100215.56;;;7.91;42.93
18988;BME280;5494;51.796;10.952;2023-04-04T10:19:03;100210.00;;;8.09;42.60
18988;BME280;5494;51.796;10.952;2023-04-04T10:21:31;100211.63;;;8.15;42.47
18988;BME280;5494;51.796;10.952;2023-04-04T10:24:01;100206.09;;;8.32;42.08
18988;BME280;5494;51.796;10.952;2023-04-04T10:26:38;100211.00;;;7.59;42.82
18988;BME280;5494;51.796;10.952;2023-04-04T10:29:06;100214.28;;;7.20;43.20
18988;BME280;5494;51.796;10.952;2023-04-04T10:31:40;100212.59;;;6.65;43.63
18988;BME280;5494;51.796;10.952;2023-04-04T10:34:21;100211.38;;;5.59;45.78
18988;BME280;5494;51.796;10.952;2023-04-04T10:37:06;100217.31;;;5.64;47.51
18988;BME280;5494;51.796;10.952;2023-04-04T10:39:46;100209.16;;;6.03;47.89
18988;BME280;5494;51.796;10.952;2023-04-04T10:42:18;100212.78;;;5.84;49.19
18988;BME280;5494;51.796;10.952;2023-04-04T10:44:46;100197.31;;;5.84;48.08
18988;BME280;5494;51.796;10.952;2023-04-04T10:47:17;100207.41;;;6.04;48.33
18988;BME280;5494;51.796;10.952;2023-04-04T10:49:50;100204.28;;;6.45;47.80
18988;BME280;5494;51.796;10.952;2023-04-04T10:52:20;100201.47;;;6.60;47.92
18988;BME280;5494;51.796;10.952;2023-04-04T10:54:50;100202.63;;;5.72;47.06
18988;BME280;5494;51.796;10.952;2023-04-04T10:57:19;100203.78;;;5.43;48.65
18988;BME280;5494;51.796;10.952;2023-04-04T10:59:55;100193.63;;;6.06;48.99
18988;BME280;5494;51.796;10.952;2023-04-04T11:02:48;100196.25;;;6.03;51.36
18988;BME280;5494;51.796;10.952;2023-04-04T11:05:24;100197.84;;;5.35;47.49
18988;BME280;5494;51.796;10.952;2023-04-04T11:07:57;100194.13;;;5.62;48.62
18988;BME280;5494;51.796;10.952;2023-04-04T11:10:31;100198.97;;;5.94;47.75
18988;BME280;5494;51.796;10.952;2023-04-04T11:13:02;100194.81;;;5.78;47.13
18988;BME280;5494;51.796;10.952;2023-04-04T11:15:53;100194.34;;;6.16;46.95
18988;BME280;5494;51.796;10.952;2023-04-04T11:18:45;100180.47;;;6.83;45.42
18988;BME280;5494;51.796;10.952;2023-04-04T11:21:17;100186.00;;;7.12;43.93
18988;BME280;5494;51.796;10.952;2023-04-04T11:24:14;100180.25;;;7.44;42.35
18988;BME280;5494;51.796;10.952;2023-04-04T11:26:45;100174.44;;;7.33;42.63
18988;BME280;5494;51.796;10.952;2023-04-04T11:29:22;100171.31;;;6.62;44.42
18988;BME280;5494;51.796;10.952;2023-04-04T11:32:32;100173.00;;;6.06;43.13
18988;BME280;5494;51.796;10.952;2023-04-04T11:35:03;100170.50;;;6.00;45.12
18988;BME280;5494;51.796;10.952;2023-04-04T11:37:42;100169.63;;;6.01;44.88
18988;BME280;5494;51.796;10.952;2023-04-04T11:40:12;100180.78;;;5.25;46.31
18988;BME280;5494;51.796;10.952;2023-04-04T11:42:41;100170.63;;;5.10;47.41
18988;BME280;5494;51.796;10.952;2023-04-04T11:45:18;100155.00;;;5.25;48.23
18988;BME280;5494;51.796;10.952;2023-04-04T11:47:48;100162.75;;;5.21;50.07
18988;BME280;5494;51.796;10.952;2023-04-04T11:50:18;100166.56;;;4.79;47.60
18988;BME280;5494;51.796;10.952;2023-04-04T11:52:49;100164.88;;;4.78;48.43
18988;BME280;5494;51.796;10.952;2023-04-04T11:55:20;100153.63;;;4.88;48.15
18988;BME280;5494;51.796;10.952;2023-04-04T11:57:48;100151.84;;;4.96;48.63
18988;BME280;5494;51.796;10.952;2023-04-04T12:00:28;100165.13;;;4.49;50.08
18988;BME280;5494;51.796;10.952;2023-04-04T12:02:57;100145.91;;;4.86;49.98
18988;BME280;5494;51.796;10.952;2023-04-04T12:05:25;100139.91;;;4.86;47.13
18988;BME280;5494;51.796;10.952;2023-04-04T12:07:57;100139.03;;;4.85;46.93
18988;BME280;5494;51.796;10.952;2023-04-04T12:10:29;100133.16;;;4.74;47.39
18988;BME280;5494;51.796;10.952;2023-04-04T12:12:59;100128.81;;;4.78;47.58
18988;BME280;5494;51.796;10.952;2023-04-04T12:15:28;100129.47;;;5.01;47.91
18988;BME280;5494;51.796;10.952;2023-04-04T12:17:57;100131.94;;;5.11;50.63
18988;BME280;5494;51.796;10.952;2023-04-04T12:20:25;100123.81;;;5.46;50.66
18988;BME280;5494;51.796;10.952;2023-04-04T12:22:53;100113.28;;;5.65;45.91
18988;BME280;5494;51.796;10.952;2023-04-04T12:25:23;100119.88;;;5.87;46.84
18988;BME280;5494;51.796;10.952;2023-04-04T12:27:55;100123.72;;;5.55;51.74
18988;BME280;5494;51.796;10.952;2023-04-04T12:30:23;100110.34;;;5.23;52.78
18988;BME280;5494;51.796;10.952;2023-04-04T12:32:51;100123.16;;;5.29;52.62
18988;BME280;5494;51.796;10.952;2023-04-04T12:35:19;100124.56;;;4.70;52.43
18988;BME280;5494;51.796;10.952;2023-04-04T12:38:00;100117.22;;;4.28;54.17
18988;BME280;5494;51.796;10.952;2023-04-04T12:40:31;100121.47;;;4.33;54.46
18988;BME280;5494;51.796;10.952;2023-04-04T12:43:05;100116.16;;;4.56;54.60
18988;BME280;5494;51.796;10.952;2023-04-04T12:45:37;100110.03;;;4.68;52.03
18988;BME280;5494;51.796;10.952;2023-04-04T12:48:10;100107.06;;;5.06;52.18
18988;BME280;5494;51.796;10.952;2023-04-04T12:50:53;100096.94;;;5.66;50.62
18988;BME280;5494;51.796;10.952;2023-04-04T12:53:23;100087.81;;;6.06;48.57
18988;BME280;5494;51.796;10.952;2023-04-04T12:56:00;100078.31;;;6.62;47.99
18988;BME280;5494;51.796;10.952;2023-04-04T12:58:32;100071.34;;;6.67;46.93
18988;BME280;5494;51.796;10.952;2023-04-04T13:01:03;100075.25;;;6.40;47.04
18988;BME280;5494;51.796;10.952;2023-04-04T13:03:33;100081.72;;;6.09;49.05
18988;BME280;5494;51.796;10.952;2023-04-04T13:06:11;100064.47;;;5.51;47.09
18988;BME280;5494;51.796;10.952;2023-04-04T13:08:48;100064.03;;;5.14;48.21
18988;BME280;5494;51.796;10.952;2023-04-04T13:11:19;100056.13;;;5.32;48.76
18988;BME280;5494;51.796;10.952;2023-04-04T13:13:47;100055.81;;;5.55;47.87